createdAt,value
2023-02-15T00:01:08.930Z,21.27
2023-02-15T00:06:08.675Z,21.40
2023-02-15T00:11:08.590Z,19.53
2023-02-15T00:16:08.442Z,20.60
2023-02-15T00:21:09.772Z,20.07
2023-02-15T00:26:09.524Z,20.80
2023-02-15T00:31:09.492Z,18.90
2023-02-15T00:36:10.569Z,20.80
2023-02-15T00:41:10.520Z,21.03
2023-02-15T00:46:09.857Z,20.07
2023-02-15T00:51:09.559Z,22.37
2023-02-15T00:56:07.918Z,20.53
2023-02-15T01:01:10.754Z,20.63
2023-02-15T01:06:11.008Z,19.27
2023-02-15T01:11:11.373Z,21.37
2023-02-15T01:16:10.520Z,20.50
2023-02-15T01:21:15.816Z,21.67
2023-02-15T01:26:19.250Z,20.70
2023-02-15T01:31:20.591Z,20.20
2023-02-15T01:36:20.446Z,21.80
2023-02-15T01:41:28.782Z,22.63
2023-02-15T01:46:31.174Z,20.70
2023-02-15T01:51:35.428Z,22.50
2023-02-15T01:56:37.025Z,20.90
2023-02-15T02:01:35.496Z,22.73
2023-02-15T02:06:37.870Z,21.43
2023-02-15T02:11:38.164Z,21.47
2023-02-15T02:16:46.787Z,20.97
2023-02-15T02:22:19.855Z,23.97
2023-02-15T02:27:31.734Z,23.93
2023-02-15T02:32:49.309Z,22.83
2023-02-15T02:37:57.347Z,24.20
2023-02-15T02:43:02.532Z,22.73
2023-02-15T02:48:06.215Z,25.43
2023-02-15T02:53:05.887Z,22.93
2023-02-15T02:58:10.401Z,25.53
2023-02-15T03:03:12.830Z,25.77
2023-02-15T03:08:14.348Z,27.67
2023-02-15T03:13:12.905Z,28.20
2023-02-15T03:18:11.355Z,29.07
2023-02-15T03:23:16.174Z,30.87
2023-02-15T03:28:19.408Z,30.10
2023-02-15T03:33:19.047Z,28.93
2023-02-15T03:38:23.189Z,30.87
2023-02-15T03:43:26.184Z,29.57
2023-02-15T03:48:28.841Z,28.10
2023-02-15T03:53:29.115Z,28.87
2023-02-15T03:58:45.064Z,30.23
2023-02-15T04:03:46.944Z,31.83
2023-02-15T04:09:04.305Z,29.70
2023-02-15T04:14:22.555Z,28.33
2023-02-15T04:19:38.361Z,28.30
2023-02-15T04:24:55.283Z,30.23
2023-02-15T04:29:53.593Z,30.53
2023-02-15T04:34:51.856Z,32.73
2023-02-15T04:39:51.551Z,32.23
2023-02-15T04:44:49.816Z,29.77
2023-02-15T04:49:47.903Z,31.63
2023-02-15T04:54:46.330Z,30.50
2023-02-15T04:59:47.212Z,34.17
2023-02-15T05:04:45.446Z,31.93
2023-02-15T05:09:43.488Z,32.80
2023-02-15T05:14:41.901Z,31.30
2023-02-15T05:19:41.349Z,31.53
2023-02-15T05:24:56.998Z,30.07
2023-02-15T05:29:55.151Z,31.67
2023-02-15T05:34:54.991Z,31.23
2023-02-15T05:39:54.524Z,33.30
2023-02-15T05:44:52.788Z,32.57
2023-02-15T05:49:51.045Z,32.67
2023-02-15T05:54:50.688Z,35.77
2023-02-15T05:59:48.957Z,33.50
2023-02-15T06:04:47.048Z,36.47
2023-02-15T06:09:45.295Z,37.17
2023-02-15T06:14:44.926Z,44.80
2023-02-15T06:19:43.035Z,40.50
2023-02-15T06:24:41.288Z,36.40
2023-02-15T06:29:39.986Z,45.83
2023-02-15T06:34:39.583Z,51.10
2023-02-15T06:39:37.838Z,51.10
2023-02-15T06:44:36.079Z,44.10
2023-02-15T06:49:34.144Z,44.47
2023-02-15T06:54:33.797Z,40.03
2023-02-15T06:59:31.996Z,38.73
2023-02-15T07:04:31.163Z,47.30
2023-02-15T07:09:29.623Z,41.97
2023-02-15T07:14:29.333Z,32.67
2023-02-15T07:19:27.669Z,29.43
2023-02-15T07:24:26.119Z,41.63
2023-02-15T07:29:24.413Z,32.47
2023-02-15T07:34:24.301Z,39.07
2023-02-15T07:39:22.828Z,30.70
2023-02-15T07:44:21.184Z,30.57
2023-02-15T07:49:19.423Z,33.03
2023-02-15T07:54:19.045Z,31.67
2023-02-15T07:59:17.291Z,29.20
2023-02-15T08:04:15.781Z,27.97
2023-02-15T08:09:14.241Z,25.00
2023-02-15T08:14:15.686Z,25.03
2023-02-15T08:19:16.197Z,29.43
2023-02-15T08:24:16.297Z,22.47
2023-02-15T08:29:17.017Z,28.27
2023-02-15T08:34:18.056Z,21.40
2023-02-15T08:39:17.690Z,26.57
2023-02-15T08:44:18.498Z,21.83
2023-02-15T08:49:19.664Z,24.37
2023-02-15T08:54:19.717Z,26.90
2023-02-15T08:59:20.927Z,24.80
2023-02-15T09:04:19.704Z,23.10
2023-02-15T09:09:18.739Z,22.10
2023-02-15T09:14:21.278Z,22.17
2023-02-15T09:19:20.893Z,21.10
2023-02-15T09:24:19.434Z,21.20
2023-02-15T09:29:20.668Z,20.67
2023-02-15T09:34:21.995Z,21.67
2023-02-15T09:39:24.727Z,20.93
2023-02-15T09:44:36.118Z,19.63
2023-02-15T09:49:41.308Z,21.37
2023-02-15T09:54:50.514Z,20.90
2023-02-15T10:00:03.719Z,21.07
2023-02-15T10:05:24.339Z,21.50
2023-02-15T10:10:33.088Z,21.20
2023-02-15T10:15:43.133Z,22.10
2023-02-15T10:20:51.732Z,23.17
2023-02-15T10:25:57.925Z,22.37
2023-02-15T10:31:04.863Z,22.20
2023-02-15T10:36:13.874Z,22.90
2023-02-15T10:41:24.378Z,22.00
2023-02-15T10:46:39.880Z,20.27
2023-02-15T10:51:48.548Z,19.17
2023-02-15T10:56:54.592Z,18.80
2023-02-15T11:02:01.384Z,21.17
2023-02-15T11:07:04.404Z,19.33
2023-02-15T11:12:03.389Z,22.30
2023-02-15T11:17:08.062Z,20.50
2023-02-15T11:22:08.284Z,20.77
2023-02-15T11:27:16.262Z,21.60
2023-02-15T11:32:22.424Z,19.10
2023-02-15T11:37:26.922Z,19.53
2023-02-15T11:42:27.759Z,18.73
2023-02-15T11:47:28.935Z,19.27
2023-02-15T11:52:29.733Z,17.60
2023-02-15T11:57:34.844Z,19.37
2023-02-15T12:02:38.773Z,19.33
2023-02-15T12:07:42.663Z,18.83
2023-02-15T12:12:41.178Z,21.27
2023-02-15T12:17:43.556Z,19.83
2023-02-15T12:22:48.466Z,18.97
2023-02-15T12:27:46.574Z,18.63
2023-02-15T12:32:54.765Z,17.83
2023-02-15T12:37:58.254Z,19.90
2023-02-15T12:42:57.258Z,16.50
2023-02-15T12:48:17.963Z,17.37
2023-02-15T12:53:20.243Z,15.90
2023-02-15T12:58:19.734Z,16.60
2023-02-15T13:03:22.272Z,14.63
2023-02-15T13:08:22.716Z,16.80
2023-02-15T13:13:24.085Z,16.70
2023-02-15T13:18:33.985Z,16.03
2023-02-15T13:23:35.372Z,14.70
2023-02-15T13:28:42.083Z,14.90
2023-02-15T13:33:46.809Z,14.97
2023-02-15T13:39:06.358Z,14.27
2023-02-15T13:44:17.267Z,14.57
2023-02-15T13:49:28.168Z,13.23
2023-02-15T13:55:09.318Z,12.70
2023-02-15T14:00:20.496Z,14.53
2023-02-15T14:05:39.122Z,13.93
2023-02-15T14:10:54.817Z,14.40
2023-02-15T14:16:00.617Z,15.30
2023-02-15T14:21:08.674Z,14.23
2023-02-15T14:26:12.512Z,14.40
2023-02-15T14:31:14.866Z,14.47
2023-02-15T14:36:20.913Z,13.27
2023-02-15T14:41:23.969Z,14.20
2023-02-15T14:46:30.011Z,13.20
2023-02-15T14:51:59.992Z,11.73
2023-02-15T14:57:28.963Z,12.73
2023-02-15T15:02:30.535Z,12.60
2023-02-15T15:07:37.760Z,11.77
2023-02-15T15:12:41.671Z,11.20
2023-02-15T15:17:58.373Z,10.33
2023-02-15T15:23:29.778Z,9.77
2023-02-15T15:28:57.866Z,9.40
2023-02-15T15:34:19.962Z,8.40
2023-02-15T15:39:44.490Z,7.97
2023-02-15T15:45:25.788Z,7.50
2023-02-15T15:50:24.428Z,7.83
2023-02-15T15:55:26.267Z,7.90
2023-02-15T16:00:35.532Z,7.67
2023-02-15T16:05:40.656Z,7.87
2023-02-15T16:10:39.090Z,9.50
2023-02-15T16:15:48.072Z,8.43
2023-02-15T16:20:54.130Z,9.13
2023-02-15T16:26:01.778Z,9.10
2023-02-15T16:31:13.909Z,9.07
2023-02-15T16:36:14.138Z,9.40
2023-02-15T16:41:13.984Z,8.50
2023-02-15T16:46:18.574Z,9.13
2023-02-15T16:51:22.820Z,8.80
2023-02-15T16:56:26.071Z,9.20
2023-02-15T17:01:28.368Z,9.03
2023-02-15T17:06:30.526Z,8.63
2023-02-15T17:11:36.948Z,9.00
2023-02-15T17:16:38.416Z,8.83
2023-02-15T17:21:42.573Z,11.73
2023-02-15T17:26:41.244Z,9.90
2023-02-15T17:31:41.136Z,9.10
2023-02-15T17:36:59.660Z,8.70
2023-02-15T17:41:57.938Z,8.43
2023-02-15T17:46:57.639Z,8.20
2023-02-15T17:51:55.929Z,8.90
2023-02-15T17:56:54.218Z,9.10
2023-02-15T18:02:09.883Z,9.20
2023-02-15T18:07:29.090Z,9.77
2023-02-15T18:12:30.105Z,9.17
2023-02-15T18:17:31.387Z,8.90
2023-02-15T18:22:31.333Z,9.83
2023-02-15T18:27:29.627Z,9.53
2023-02-15T18:32:35.274Z,10.10
2023-02-15T18:37:35.426Z,10.93
2023-02-15T18:42:36.194Z,10.43
2023-02-15T18:47:34.537Z,10.97
2023-02-15T18:52:38.178Z,11.03
2023-02-15T18:57:36.493Z,11.90
2023-02-15T19:02:34.910Z,10.17
2023-02-15T19:07:35.988Z,12.57
2023-02-15T19:12:35.648Z,11.57
2023-02-15T19:17:33.846Z,12.43
2023-02-15T19:22:34.212Z,14.40
2023-02-15T19:27:35.149Z,13.80
2023-02-15T19:32:34.847Z,13.93
2023-02-15T19:37:37.248Z,14.03
2023-02-15T19:42:35.539Z,14.80
2023-02-15T19:47:35.203Z,14.00
2023-02-15T19:52:33.593Z,13.43
2023-02-15T19:57:32.003Z,13.07
2023-02-15T20:02:30.357Z,14.27
2023-02-15T20:07:30.750Z,13.27
2023-02-15T20:12:29.881Z,12.80
2023-02-15T20:17:28.120Z,12.80
2023-02-15T20:22:29.269Z,13.73
2023-02-15T20:27:27.692Z,12.90
2023-02-15T20:32:26.081Z,15.00
2023-02-15T20:37:28.982Z,14.90
2023-02-15T20:42:28.634Z,17.10
2023-02-15T20:47:27.767Z,15.63
2023-02-15T20:52:26.039Z,16.00
2023-02-15T20:57:24.347Z,15.07
2023-02-15T21:02:24.188Z,16.77
2023-02-15T21:07:23.055Z,15.87
2023-02-15T21:12:22.438Z,16.30
2023-02-15T21:17:20.811Z,16.87
2023-02-15T21:22:21.643Z,16.70
2023-02-15T21:27:20.142Z,16.80
2023-02-15T21:32:19.020Z,17.77
2023-02-15T21:37:30.220Z,17.77
2023-02-15T21:42:47.173Z,16.30
2023-02-15T21:47:54.397Z,18.63
2023-02-15T21:52:54.066Z,18.23
2023-02-15T21:57:52.396Z,17.37
2023-02-15T22:02:53.800Z,19.00
2023-02-15T22:07:57.396Z,18.80
2023-02-15T22:12:56.585Z,18.90
2023-02-15T22:17:55.073Z,18.77
2023-02-15T22:22:53.786Z,21.73
2023-02-15T22:27:55.100Z,22.73
2023-02-15T22:32:54.198Z,21.30
2023-02-15T22:37:52.479Z,21.00
2023-02-15T22:42:53.919Z,22.47
2023-02-15T22:47:55.691Z,20.30
2023-02-15T22:52:54.636Z,21.83
2023-02-15T22:57:56.358Z,20.80
2023-02-15T23:02:55.441Z,22.43
2023-02-15T23:07:54.082Z,20.40
2023-02-15T23:13:27.834Z,21.03
2023-02-15T23:18:29.046Z,22.33
2023-02-15T23:23:33.651Z,22.93
2023-02-15T23:28:36.471Z,21.13
2023-02-15T23:33:36.299Z,22.57
2023-02-15T23:38:34.651Z,21.27
2023-02-15T23:43:34.315Z,20.90
2023-02-15T23:48:35.918Z,19.20
2023-02-15T23:53:34.472Z,21.27
2023-02-15T23:58:41.394Z,19.43
